Time;durP1;ratioP1;P1;durP2;ratioP2;P2;SDS_P1;SDS_P2;PMS_P1;PMS_P2;Temp;Humidity;BMP_temperature;BMP_pressure;BME280_temperature;BME280_humidity;BME280_pressure;Samples;Min_cycle;Max_cycle;Signal;HPM_P1;HPM_P2
2023/10/20 00:00:26;;;;;;;6.60;2.05;;;;;;;21.84;59.54;97010.91;2075906;28;20105;-65
2023/10/20 00:01:28;;;;;;;4.38;1.40;;;;;;;21.83;59.87;97006.59;2076433;28;20057;-65
2023/10/20 00:02:29;;;;;;;4.15;1.70;;;;;;;21.82;59.46;97002.28;2078280;28;20049;-66
2023/10/20 00:03:30;;;;;;;4.93;1.85;;;;;;;21.82;59.61;97000.41;2074557;28;20111;-65
2023/10/20 00:04:31;;;;;;;1.85;1.38;;;;;;;21.83;59.85;97003.91;2080547;28;20052;-66
2023/10/20 00:05:34;;;;;;;5.32;2.33;;;;;;;21.82;59.78;97002.28;2075435;28;20117;-66
2023/10/20 00:06:38;;;;;;;2.78;1.60;;;;;;;21.82;59.75;96999.59;2080510;28;20061;-65
2023/10/20 00:07:40;;;;;;;5.15;2.55;;;;;;;21.81;59.75;96996.09;2073497;28;20053;-66
2023/10/20 00:08:42;;;;;;;3.72;1.58;;;;;;;21.81;59.77;96995.25;2074334;28;20061;-66
2023/10/20 00:09:45;;;;;;;3.15;1.85;;;;;;;21.82;59.69;96996.91;2078531;28;20056;-66
2023/10/20 00:10:46;;;;;;;3.25;1.70;;;;;;;21.82;59.69;96996.91;2075871;28;20057;-65
2023/10/20 00:11:47;;;;;;;3.92;2.13;;;;;;;21.80;59.83;96996.34;2077327;28;20049;-66
2023/10/20 00:12:49;;;;;;;5.72;1.70;;;;;;;21.80;59.54;96994.44;2077647;28;20140;-66
2023/10/20 00:13:51;;;;;;;4.43;1.85;;;;;;;21.80;59.59;96994.44;2070259;28;20049;-66
2023/10/20 00:14:53;;;;;;;3.90;1.67;;;;;;;21.79;59.51;96997.44;2079429;28;20103;-66
2023/10/20 00:15:54;;;;;;;3.80;1.90;;;;;;;21.80;59.49;96994.44;2077234;28;20041;-65
2023/10/20 00:16:55;;;;;;;2.80;1.45;;;;;;;21.81;59.50;97000.66;2078760;28;20561;-65
2023/10/20 00:17:56;;;;;;;5.07;1.80;;;;;;;21.79;59.65;97003.63;2075795;28;20056;-66
2023/10/20 00:19:01;;;;;;;3.67;2.10;;;;;;;21.84;59.47;97016.31;2075395;28;20156;-66
2023/10/20 00:20:02;;;;;;;3.17;1.75;;;;;;;21.80;59.59;97012.53;2075608;28;20087;-66
2023/10/20 00:21:04;;;;;;;2.55;1.58;;;;;;;21.81;59.61;97011.44;2079526;28;20064;-64
2023/10/20 00:22:05;;;;;;;4.20;1.58;;;;;;;21.82;59.54;97003.09;2080371;28;20404;-65
2023/10/20 00:23:07;;;;;;;2.85;1.75;;;;;;;21.84;59.61;97003.66;2076806;28;20047;-65
2023/10/20 00:24:08;;;;;;;5.10;1.83;;;;;;;21.81;59.39;96998.78;2077828;28;20060;-66
2023/10/20 00:25:12;;;;;;;3.55;1.98;;;;;;;21.80;59.47;96991.75;2077041;28;20048;-66
2023/10/20 00:26:13;;;;;;;2.95;1.70;;;;;;;21.81;59.71;97000.66;2076038;28;20611;-66
2023/10/20 00:27:15;;;;;;;3.10;1.83;;;;;;;21.82;59.47;96996.91;2079076;28;20046;-65
2023/10/20 00:28:16;;;;;;;2.42;1.23;;;;;;;21.80;59.69;96994.44;2078183;28;20577;-65
2023/10/20 00:29:18;;;;;;;3.00;1.65;;;;;;;21.81;59.24;96987.16;2076165;28;20163;-66
2023/10/20 00:30:18;;;;;;;4.00;1.70;;;;;;;21.80;59.41;96996.34;2081909;28;20049;-66
2023/10/20 00:31:21;;;;;;;2.95;1.30;;;;;;;21.81;59.40;97001.50;2076675;28;20053;-65
2023/10/20 00:32:22;;;;;;;6.38;2.20;;;;;;;21.80;59.50;96994.44;2078220;28;20045;-64
2023/10/20 00:33:24;;;;;;;2.83;1.27;;;;;;;21.80;59.61;96997.16;2079818;28;20091;-66
2023/10/20 00:34:25;;;;;;;2.85;1.60;;;;;;;21.82;59.36;96991.50;2078245;28;20120;-64
2023/10/20 00:35:27;;;;;;;3.78;2.13;;;;;;;21.79;59.64;96986.63;2079443;28;20056;-65
2023/10/20 00:36:28;;;;;;;4.22;1.95;;;;;;;21.79;59.58;96981.25;2077796;28;20044;-66
2023/10/20 00:37:30;;;;;;;3.85;1.40;;;;;;;21.79;59.40;96976.66;2074544;28;20131;-66
2023/10/20 00:38:31;;;;;;;3.70;2.20;;;;;;;21.79;59.45;96973.94;2077781;28;20072;-65
2023/10/20 00:39:34;;;;;;;;;;;;;;;21.66;59.77;96968.22;2077005;28;20427;-66
2023/10/20 00:40:45;;;;;;;2.15;1.33;;;;;;;21.67;59.91;96973.34;2074663;28;19926;-66
2023/10/20 00:41:46;;;;;;;3.00;2.03;;;;;;;21.71;59.60;96979.03;2077549;28;20044;-66
2023/10/20 00:42:47;;;;;;;3.25;1.55;;;;;;;21.74;59.62;96976.63;2078133;28;20303;-66
2023/10/20 00:43:49;;;;;;;6.28;1.48;;;;;;;21.77;59.59;96967.19;2074298;28;20140;-65
2023/10/20 00:44:50;;;;;;;2.97;1.30;;;;;;;21.77;59.73;96964.50;2078199;28;20056;-65
2023/10/20 00:45:52;;;;;;;4.45;1.60;;;;;;;21.78;59.42;96966.09;2074931;28;20049;-65
2023/10/20 00:46:53;;;;;;;3.05;1.50;;;;;;;21.79;59.53;96962.34;2076324;28;20546;-65
2023/10/20 00:47:56;;;;;;;6.40;1.75;;;;;;;21.80;59.34;96958.56;2078018;28;20123;-66
2023/10/20 00:48:57;;;;;;;2.47;1.38;;;;;;;21.77;59.62;96964.50;2076140;28;20106;-66
2023/10/20 00:50:00;;;;;;;3.08;1.40;;;;;;;21.80;59.55;96961.25;2078447;28;20053;-67
2023/10/20 00:51:05;;;;;;;1.88;1.40;;;;;;;21.77;59.41;96957.19;2079497;28;20396;-66
2023/10/20 00:52:07;;;;;;;4.53;1.92;;;;;;;21.77;59.43;96959.91;2079356;28;20154;-66
2023/10/20 00:53:09;;;;;;;2.47;1.30;;;;;;;21.78;59.42;96958.00;2076315;28;20060;-65
2023/10/20 00:54:14;;;;;;;3.25;1.45;;;;;;;21.77;59.43;96962.59;2077737;28;20094;-66
2023/10/20 00:55:16;;;;;;;2.13;1.52;;;;;;;21.77;59.46;96953.69;2075610;28;20068;-66
2023/10/20 00:56:19;;;;;;;2.15;1.52;;;;;;;21.78;59.41;96963.41;2075458;28;20451;-65
2023/10/20 00:57:21;;;;;;;5.50;2.25;;;;;;;21.77;59.44;96964.50;2078412;28;20048;-65
2023/10/20 00:58:25;;;;;;;4.45;1.58;;;;;;;21.75;59.61;96961.25;2077294;28;20106;-65
2023/10/20 00:59:27;;;;;;;4.78;1.70;;;;;;;21.75;59.56;96966.63;2073442;28;20049;-65
2023/10/20 01:00:29;;;;;;;1.23;1.13;;;;;;;21.77;59.38;96957.19;2076350;28;20063;-65
2023/10/20 01:01:31;;;;;;;3.25;2.00;;;;;;;21.78;59.35;96955.31;2077461;28;20144;-66
2023/10/20 01:02:33;;;;;;;3.17;1.30;;;;;;;21.78;59.14;96953.41;2078534;28;20042;-66
2023/10/20 01:03:35;;;;;;;6.18;1.40;;;;;;;21.76;59.45;96955.59;2069792;28;20056;-66
2023/10/20 01:04:37;;;;;;;2.05;1.20;;;;;;;21.76;59.29;96952.09;2075808;28;20543;-66
2023/10/20 01:05:38;;;;;;;3.10;1.95;;;;;;;21.77;59.33;96957.19;2070072;28;20053;-66
2023/10/20 01:06:40;;;;;;;;;;;;;;;21.64;59.67;96947.69;2075378;28;20097;-66
2023/10/20 01:07:41;;;;;;;1.80;1.38;;;;;;;21.67;59.71;96945.56;2075240;28;19935;-66
2023/10/20 01:08:43;;;;;;;1.95;1.52;;;;;;;21.71;59.39;96933.19;2076414;28;20049;-66
2023/10/20 01:09:44;;;;;;;3.75;1.48;;;;;;;21.74;59.37;96933.44;2076398;28;20492;-66
2023/10/20 01:10:46;;;;;;;4.32;1.35;;;;;;;21.74;59.39;96935.34;2078032;28;20057;-66
2023/10/20 01:11:49;;;;;;;5.03;1.90;;;;;;;21.77;59.49;96924.00;2078656;28;20107;-65
2023/10/20 01:12:51;;;;;;;4.05;1.45;;;;;;;21.76;59.25;96928.59;2078915;28;20087;-66
2023/10/20 01:13:51;;;;;;;2.55;1.48;;;;;;;21.77;59.23;96929.41;2076849;28;20049;-65
2023/10/20 01:14:53;;;;;;;;;;;;;;;21.62;59.64;96922.88;2077302;28;20779;-66
2023/10/20 01:15:54;;;;;;;;;;;;;;;21.54;59.88;96919.91;2080045;28;19932;-66
2023/10/20 01:16:56;;;;;;;3.55;1.58;;;;;;;21.62;59.79;96912.09;2081522;28;19920;-66
2023/10/20 01:17:58;;;;;;;4.35;1.90;;;;;;;21.67;59.61;96913.19;2075491;28;20972;-66
2023/10/20 01:19:00;;;;;;;2.58;1.40;;;;;;;;;;2079649;28;20106;-65
2023/10/20 01:20:01;;;;;;;4.07;2.05;;;;;;;21.72;59.44;96899.72;2079002;28;20049;-66
2023/10/20 01:21:04;;;;;;;2.20;1.33;;;;;;;;;;2079551;28;20056;-66
2023/10/20 01:22:05;;;;;;;4.00;1.60;;;;;;;21.73;59.41;96895.91;2073023;28;20065;-66
2023/10/20 01:23:07;;;;;;;3.13;1.40;;;;;;;21.76;59.45;96890.81;2077704;28;20049;-66
2023/10/20 01:24:10;;;;;;;2.38;1.30;;;;;;;21.77;59.24;96891.63;2076954;28;20055;-65
2023/10/20 01:25:12;;;;;;;2.58;1.58;;;;;;;21.76;59.26;96890.03;2079794;28;20058;-65
2023/10/20 01:26:13;;;;;;;3.05;1.30;;;;;;;21.75;59.35;96883.78;2077381;28;20432;-66
2023/10/20 01:27:15;;;;;;;2.20;1.60;;;;;;;21.77;59.26;96891.63;2074488;28;20053;-66
2023/10/20 01:28:16;;;;;;;2.05;1.48;;;;;;;21.76;59.22;96890.03;2078342;28;20052;-66
2023/10/20 01:29:18;;;;;;;3.20;1.38;;;;;;;21.75;59.31;96894.59;2073965;28;20061;-65
2023/10/20 01:30:19;;;;;;;4.38;1.40;;;;;;;21.76;59.16;96873.84;2077479;28;20049;-66
2023/10/20 01:31:22;;;;;;;3.78;1.17;;;;;;;21.77;59.21;96883.53;2078167;28;20064;-66
2023/10/20 01:32:23;;;;;;;1.70;1.30;;;;;;;21.75;59.08;96881.09;2076357;28;20511;-65
2023/10/20 01:33:25;;;;;;;2.45;1.30;;;;;;;21.77;59.33;96883.53;2076210;28;20077;-66
2023/10/20 01:34:26;;;;;;;3.28;1.52;;;;;;;21.76;59.11;96888.13;2073633;28;21603;-66
2023/10/20 01:35:28;;;;;;;3.20;1.75;;;;;;;21.74;59.22;96887.56;2075933;28;20060;-65
2023/10/20 01:36:29;;;;;;;6.05;2.20;;;;;;;21.75;59.26;96883.78;2076900;28;20052;-65
2023/10/20 01:37:31;;;;;;;3.47;1.23;;;;;;;21.78;59.15;96891.34;2074782;28;20089;-64
2023/10/20 01:38:32;;;;;;;1.42;1.25;;;;;;;21.76;59.25;96871.13;2075827;28;20179;-64
2023/10/20 01:39:35;;;;;;;5.72;1.60;;;;;;;21.75;59.10;96881.09;2076395;28;20053;-64
2023/10/20 01:40:36;;;;;;;2.83;1.50;;;;;;;21.74;59.09;96876.78;2078034;28;20506;-66
2023/10/20 01:41:38;;;;;;;2.97;1.75;;;;;;;21.74;59.18;96876.78;2075930;28;20079;-65
2023/10/20 01:42:40;;;;;;;6.18;1.35;;;;;;;21.76;59.01;96882.72;2077572;28;20427;-65
2023/10/20 01:43:42;;;;;;;2.67;1.50;;;;;;;21.77;59.36;96880.84;2076812;28;20144;-66
2023/10/20 01:44:43;;;;;;;3.80;1.05;;;;;;;21.77;59.11;96876.25;2075136;28;20497;-65
2023/10/20 01:45:45;;;;;;;1.70;1.48;;;;;;;21.76;59.30;96863.03;2068183;28;20057;-66
2023/10/20 01:46:49;;;;;;;5.70;1.40;;;;;;;21.76;59.32;96846.84;2076845;28;20423;-66
2023/10/20 01:47:51;;;;;;;3.55;1.52;;;;;;;21.74;59.11;96838.19;2073930;28;21521;-66
2023/10/20 01:48:52;;;;;;;2.80;1.40;;;;;;;21.74;59.09;96833.59;2078359;28;20050;-66
2023/10/20 01:49:52;;;;;;;2.85;1.20;;;;;;;21.73;59.24;96833.84;2071856;28;20427;-65
2023/10/20 01:50:55;;;;;;;2.15;1.10;;;;;;;21.76;59.18;96830.66;2078720;28;20091;-65
2023/10/20 01:51:56;;;;;;;1.75;1.08;;;;;;;21.73;59.28;96812.28;2075531;28;20048;-66
2023/10/20 01:52:58;;;;;;;3.08;1.23;;;;;;;21.74;58.90;96805.81;2077532;28;20129;-65
2023/10/20 01:53:58;;;;;;;2.47;1.67;;;;;;;21.74;59.26;96800.41;2076450;28;20530;-66
2023/10/20 01:55:02;;;;;;;3.78;1.30;;;;;;;21.75;59.22;96783.13;2076403;28;20136;-65
2023/10/20 01:56:03;;;;;;;3.00;1.60;;;;;;;21.75;59.18;96769.66;2075341;28;20501;-65
2023/10/20 01:57:04;;;;;;;2.95;1.40;;;;;;;21.74;58.90;96763.44;2077876;28;20045;-65
2023/10/20 01:58:06;;;;;;;4.75;1.38;;;;;;;21.75;59.14;96746.16;2075438;28;20045;-66
2023/10/20 01:59:07;;;;;;;3.65;1.48;;;;;;;21.75;59.15;96759.66;2075861;28;20045;-66
2023/10/20 02:00:13;;;;;;;3.15;1.25;;;;;;;21.75;58.88;96762.34;2074429;28;20771;-65
2023/10/20 02:01:14;;;;;;;2.60;2.00;;;;;;;21.75;59.26;96764.25;2079392;28;20423;-65
2023/10/20 02:02:15;;;;;;;1.13;1.02;;;;;;;21.75;59.17;96769.66;2076046;28;20052;-66
2023/10/20 02:03:17;;;;;;;3.13;1.55;;;;;;;21.72;59.09;96770.19;2078798;28;20057;-65
2023/10/20 02:04:19;;;;;;;3.85;1.35;;;;;;;21.74;59.18;96774.25;2078820;28;20526;-65
2023/10/20 02:05:20;;;;;;;3.47;1.70;;;;;;;;;;2073200;28;20049;-66
2023/10/20 02:06:21;;;;;;;2.17;1.73;;;;;;;;;;2077301;28;20045;-65
2023/10/20 02:07:22;;;;;;;3.65;1.90;;;;;;;21.73;59.06;96777.19;2069407;28;20052;-66
2023/10/20 02:08:24;;;;;;;2.50;1.48;;;;;;;21.71;59.14;96768.59;2078129;28;20059;-65
2023/10/20 02:09:25;;;;;;;2.75;1.52;;;;;;;;;;2076069;28;20064;-65
2023/10/20 02:10:29;;;;;;;2.30;1.33;;;;;;;21.76;58.81;96765.91;2076182;28;21220;-66
2023/10/20 02:11:29;;;;;;;4.50;1.40;;;;;;;21.72;59.16;96770.19;2071513;28;20410;-66
2023/10/20 02:12:31;;;;;;;3.10;1.70;;;;;;;21.76;58.93;96777.50;2076908;28;20041;-65
2023/10/20 02:13:35;;;;;;;2.45;1.08;;;;;;;21.73;59.06;96771.81;2075293;28;20055;-65
2023/10/20 02:14:36;;;;;;;1.83;1.10;;;;;;;21.73;59.19;96777.19;2075102;28;20523;-65
2023/10/20 02:15:38;;;;;;;3.42;1.73;;;;;;;21.72;59.33;96780.97;2075250;28;20045;-65
2023/10/20 02:16:41;;;;;;;1.88;1.40;;;;;;;21.71;58.94;96784.78;2072065;28;20089;-66
2023/10/20 02:17:42;;;;;;;2.70;1.40;;;;;;;21.72;58.85;96780.97;2071922;28;20077;-65
2023/10/20 02:18:43;;;;;;;2.95;1.50;;;;;;;21.71;58.96;96785.56;2077589;28;20060;-67
2023/10/20 02:19:45;;;;;;;3.88;1.52;;;;;;;21.74;59.07;96786.94;2078556;28;20996;-66
2023/10/20 02:20:56;;;;;;;1.88;0.93;;;;;;;21.71;59.08;96787.47;2076237;28;20057;-65
2023/10/20 02:21:59;;;;;;;1.42;1.10;;;;;;;21.72;59.21;96780.97;2075569;28;20496;-66
2023/10/20 02:23:00;;;;;;;2.28;1.52;;;;;;;;;;2075394;28;20056;-66
2023/10/20 02:24:01;;;;;;;;;;;;;;;21.60;59.28;96779.34;2076998;28;20124;-66
2023/10/20 02:25:03;;;;;;;1.65;1.13;;;;;;;21.62;59.40;96777.22;2074356;28;20287;-66
2023/10/20 02:26:08;;;;;;;2.40;1.65;;;;;;;21.68;58.99;96777.22;2072928;28;20515;-66
2023/10/20 02:27:09;;;;;;;2.40;1.50;;;;;;;21.70;58.94;96785.84;2076733;28;20052;-66
2023/10/20 02:28:11;;;;;;;5.22;1.58;;;;;;;21.71;58.97;96779.38;2076592;28;20567;-65
2023/10/20 02:29:12;;;;;;;1.90;1.15;;;;;;;21.71;59.15;96784.78;2077088;28;20041;-65
2023/10/20 02:30:15;;;;;;;3.33;1.33;;;;;;;;;;2076741;28;20148;-66
2023/10/20 02:31:17;;;;;;;2.10;1.10;;;;;;;21.72;59.14;96789.09;2076123;28;20423;-65
2023/10/20 02:32:19;;;;;;;2.33;0.93;;;;;;;21.74;58.96;96786.94;2076822;28;20096;-66
2023/10/20 02:33:19;;;;;;;4.65;1.55;;;;;;;;;;2077408;28;20362;-66
2023/10/20 02:34:20;;;;;;;;;;;;;;;21.60;59.10;96770.47;2075015;28;20526;-65
2023/10/20 02:35:22;;;;;;;2.23;1.30;;;;;;;21.63;59.22;96772.63;2073974;28;20118;-66
2023/10/20 02:36:24;;;;;;;1.80;1.13;;;;;;;21.66;59.02;96765.88;2078698;28;20304;-66
2023/10/20 02:37:25;;;;;;;4.38;1.63;;;;;;;21.65;59.05;96765.06;2075589;28;20148;-66
2023/10/20 02:38:26;;;;;;;3.63;1.92;;;;;;;21.69;58.99;96768.03;2077295;28;20049;-65
2023/10/20 02:39:28;;;;;;;3.55;1.77;;;;;;;21.71;59.00;96776.69;2076351;28;20053;-66
2023/10/20 02:40:29;;;;;;;3.65;1.30;;;;;;;21.72;59.05;96764.78;2077726;28;20057;-66
2023/10/20 02:41:32;;;;;;;2.47;1.58;;;;;;;21.71;58.94;96772.09;2075758;28;20061;-66
2023/10/20 02:42:34;;;;;;;2.45;1.27;;;;;;;21.73;58.87;96777.19;2072736;28;20538;-65
2023/10/20 02:43:36;;;;;;;2.92;1.40;;;;;;;21.70;58.84;96762.34;2076564;28;20071;-65
2023/10/20 02:44:37;;;;;;;2.28;1.17;;;;;;;21.74;59.00;96765.34;2077198;28;20068;-65
2023/10/20 02:45:48;;;;;;;2.50;1.35;;;;;;;21.70;59.02;96773.16;2075812;28;20057;-66
2023/10/20 02:46:48;;;;;;;2.65;1.17;;;;;;;21.70;58.88;96775.84;2077067;28;20060;-67
2023/10/20 02:47:51;;;;;;;3.22;1.23;;;;;;;21.72;58.81;96762.09;2075436;28;20049;-66
2023/10/20 02:48:52;;;;;;;4.22;1.92;;;;;;;21.72;58.87;96775.59;2079681;28;20061;-66
2023/10/20 02:49:55;;;;;;;2.78;1.13;;;;;;;21.72;59.08;96772.88;2077490;28;20056;-66
2023/10/20 02:50:57;;;;;;;2.78;1.63;;;;;;;21.73;58.75;96774.50;2073393;28;21035;-66
2023/10/20 02:51:59;;;;;;;4.00;1.45;;;;;;;21.71;58.80;96772.09;2077212;28;20533;-65
2023/10/20 02:53:00;;;;;;;2.05;1.13;;;;;;;21.74;58.89;96779.63;2077003;28;20049;-67
2023/10/20 02:54:02;;;;;;;1.40;0.73;;;;;;;21.72;59.09;96770.19;2077686;28;20780;-66
2023/10/20 02:55:03;;;;;;;2.15;1.08;;;;;;;21.72;58.91;96775.59;2079563;28;20507;-66
2023/10/20 02:56:11;;;;;;;3.33;1.30;;;;;;;21.71;59.08;96765.88;2073990;28;20119;-65
2023/10/20 02:57:13;;;;;;;3.20;1.30;;;;;;;21.70;59.06;96758.84;2075868;28;20060;-66
2023/10/20 02:58:15;;;;;;;2.83;1.00;;;;;;;21.71;58.83;96758.59;2075818;28;20063;-66
2023/10/20 02:59:16;;;;;;;3.90;1.67;;;;;;;21.71;59.17;96752.41;2074133;28;20531;-66
2023/10/20 03:00:21;;;;;;;2.75;1.35;;;;;;;21.74;58.69;96758.06;2075995;28;20048;-66
2023/10/20 03:01:23;;;;;;;2.40;1.42;;;;;;;21.71;59.04;96753.19;2072681;28;20411;-66
2023/10/20 03:02:26;;;;;;;3.60;1.58;;;;;;;21.71;58.74;96757.78;2076069;28;20422;-66
2023/10/20 03:03:27;;;;;;;2.42;1.63;;;;;;;21.71;58.86;96763.19;2078058;28;20049;-65
2023/10/20 03:04:29;;;;;;;2.40;1.40;;;;;;;21.70;58.75;96767.75;2077081;28;20128;-66
2023/10/20 03:05:30;;;;;;;1.67;1.13;;;;;;;21.70;59.01;96772.34;2077859;28;20091;-66
2023/10/20 03:06:31;;;;;;;2.13;1.88;;;;;;;21.71;59.02;96760.50;2078094;28;20045;-65
2023/10/20 03:07:32;;;;;;;1.88;1.20;;;;;;;21.69;58.87;96759.94;2076341;28;20514;-65
2023/10/20 03:08:36;;;;;;;2.80;1.08;;;;;;;21.72;58.97;96764.78;2075061;28;20056;-66
2023/10/20 03:09:38;;;;;;;2.42;1.20;;;;;;;21.69;58.86;96749.94;2076712;28;20065;-66
2023/10/20 03:10:39;;;;;;;2.60;1.30;;;;;;;21.70;58.81;96748.06;2077965;28;20060;-66
2023/10/20 03:11:43;;;;;;;3.15;1.40;;;;;;;21.70;58.92;96751.56;2076836;28;20053;-66
2023/10/20 03:12:45;;;;;;;4.20;1.77;;;;;;;21.71;58.71;96728.91;2078477;28;20600;-66
2023/10/20 03:13:47;;;;;;;2.30;1.55;;;;;;;21.70;58.91;96742.66;2076677;28;20654;-66
2023/10/20 03:14:48;;;;;;;2.60;1.42;;;;;;;21.70;58.75;96748.06;2077133;28;20053;-65
2023/10/20 03:15:50;;;;;;;3.00;1.48;;;;;;;21.72;58.65;96748.59;2077754;28;20045;-66
2023/10/20 03:16:51;;;;;;;2.00;1.30;;;;;;;21.70;58.70;96746.16;2078341;28;20048;-65
2023/10/20 03:17:53;;;;;;;2.13;1.38;;;;;;;21.72;58.78;96735.13;2074636;28;20576;-66
2023/10/20 03:18:54;;;;;;;6.22;1.30;;;;;;;21.71;58.78;96725.41;2078212;28;20061;-65
2023/10/20 03:19:56;;;;;;;2.55;1.83;;;;;;;21.71;58.83;96711.91;2077738;28;20534;-66
2023/10/20 03:21:00;;;;;;;1.40;0.98;;;;;;;21.71;58.77;96696.53;2075972;28;20061;-66
2023/10/20 03:22:02;;;;;;;2.92;1.88;;;;;;;21.68;58.94;96663.91;2073833;28;20044;-65
2023/10/20 03:23:03;;;;;;;2.95;1.55;;;;;;;21.68;58.91;96663.91;2078530;28;20049;-66
2023/10/20 03:24:06;;;;;;;1.92;1.15;;;;;;;21.68;58.71;96672.00;2077498;28;20073;-66
2023/10/20 03:25:10;;;;;;;1.98;1.00;;;;;;;21.67;58.76;96671.16;2079766;28;20525;-65
2023/10/20 03:26:12;;;;;;;2.22;1.30;;;;;;;21.70;58.76;96686.81;2076648;28;20049;-66
2023/10/20 03:27:13;;;;;;;2.28;1.35;;;;;;;21.68;58.73;96677.38;2073551;28;20045;-66
2023/10/20 03:28:16;;;;;;;2.05;1.38;;;;;;;21.70;58.85;96696.78;2077565;28;20056;-66
2023/10/20 03:29:17;;;;;;;2.25;1.00;;;;;;;21.69;58.82;96706.78;2077604;28;20046;-66
2023/10/20 03:30:19;;;;;;;4.35;1.52;;;;;;;21.70;58.69;96710.28;2075039;28;20065;-65
2023/10/20 03:31:20;;;;;;;2.72;1.15;;;;;;;21.71;58.83;96720.00;2073715;28;20058;-65
2023/10/20 03:32:22;;;;;;;3.88;1.10;;;;;;;21.73;58.92;96715.13;2074970;28;20053;-65
2023/10/20 03:33:22;;;;;;;2.08;1.10;;;;;;;21.72;58.75;96718.94;2076474;28;20106;-65
2023/10/20 03:34:25;;;;;;;1.45;1.02;;;;;;;21.70;58.92;96718.38;2078419;28;20110;-66
2023/10/20 03:35:27;;;;;;;2.05;1.25;;;;;;;21.71;58.79;96725.41;2075623;28;20664;-65
2023/10/20 03:36:29;;;;;;;2.60;1.38;;;;;;;21.69;58.70;96731.06;2080267;28;20114;-65
2023/10/20 03:37:29;;;;;;;2.35;1.20;;;;;;;21.70;58.70;96732.66;2076746;28;20068;-65
2023/10/20 03:38:32;;;;;;;4.47;1.63;;;;;;;21.69;58.82;96733.75;2075772;28;20136;-65
2023/10/20 03:39:34;;;;;;;2.80;1.35;;;;;;;21.72;58.82;96724.31;2078684;28;20455;-66
2023/10/20 03:40:37;;;;;;;4.20;1.13;;;;;;;21.70;58.62;96732.66;2080826;28;20077;-66
2023/10/20 03:41:40;;;;;;;2.13;1.20;;;;;;;21.70;58.78;96734.56;2078929;28;20099;-65
2023/10/20 03:42:42;;;;;;;1.02;0.88;;;;;;;21.71;58.64;96745.09;2077607;28;20037;-65
2023/10/20 03:43:45;;;;;;;2.53;1.70;;;;;;;;;;2080527;28;20084;-65
2023/10/20 03:44:47;;;;;;;1.05;0.93;;;;;;;21.71;58.79;96750.50;2076400;28;20056;-65
2023/10/20 03:45:51;;;;;;;1.38;1.10;;;;;;;21.71;58.79;96749.69;2079200;28;20056;-65
2023/10/20 03:46:56;;;;;;;3.10;1.35;;;;;;;21.71;58.52;96738.91;2080482;28;20088;-65
2023/10/20 03:47:58;;;;;;;2.33;1.20;;;;;;;21.71;58.59;96741.59;2077403;28;20041;-66
2023/10/20 03:48:59;;;;;;;2.63;1.50;;;;;;;21.71;58.83;96738.91;2079042;28;20427;-66
2023/10/20 03:50:01;;;;;;;3.10;1.17;;;;;;;;;;2076630;28;20276;-66
2023/10/20 03:51:05;;;;;;;1.98;1.42;;;;;;;21.73;58.53;96742.94;2077633;28;20088;-66
2023/10/20 03:52:11;;;;;;;1.80;1.00;;;;;;;21.71;58.73;96720.00;2076098;28;20056;-65
2023/10/20 03:53:18;;;;;;;1.05;0.75;;;;;;;21.70;59.00;96719.19;2078002;28;20054;-65
2023/10/20 03:54:24;;;;;;;1.98;1.17;;;;;;;21.69;58.79;96722.16;2076612;28;20512;-65
2023/10/20 03:55:26;;;;;;;2.45;1.52;;;;;;;21.68;58.75;96729.47;2076637;28;20111;-65
2023/10/20 03:56:28;;;;;;;1.98;1.42;;;;;;;21.68;58.91;96710.56;2076015;28;20048;-65
2023/10/20 03:57:29;;;;;;;1.33;1.20;;;;;;;21.70;58.85;96711.09;2073079;28;20720;-66
2023/10/20 03:58:31;;;;;;;3.20;0.88;;;;;;;21.69;58.83;96717.56;2077261;28;20061;-66
2023/10/20 03:59:34;;;;;;;1.60;1.17;;;;;;;21.69;58.62;96698.69;2078452;28;20044;-66
2023/10/20 04:00:40;;;;;;;3.28;1.55;;;;;;;21.71;58.51;96690.34;2076422;28;20114;-65
2023/10/20 04:01:40;;;;;;;5.20;1.88;;;;;;;21.69;58.59;96698.69;2076020;28;20063;-66
2023/10/20 04:02:42;;;;;;;2.88;1.45;;;;;;;21.71;58.48;96683.03;2075775;28;20182;-66
2023/10/20 04:03:49;;;;;;;1.40;1.15;;;;;;;21.74;58.65;96681.69;2078548;28;20052;-65
2023/10/20 04:04:51;;;;;;;2.15;1.10;;;;;;;21.68;58.64;96661.19;2077435;28;20148;-66
2023/10/20 04:05:51;;;;;;;1.25;1.08;;;;;;;21.71;58.58;96672.25;2076341;28;20412;-66
2023/10/20 04:06:53;;;;;;;0.73;0.73;;;;;;;21.70;58.68;96665.22;2074191;28;20177;-65
2023/10/20 04:07:54;;;;;;;1.85;1.40;;;;;;;21.69;58.62;96665.50;2076135;28;20049;-66
2023/10/20 04:08:57;;;;;;;2.15;1.30;;;;;;;21.71;58.68;96663.34;2076712;28;20049;-65
2023/10/20 04:09:59;;;;;;;2.13;1.17;;;;;;;21.68;58.83;96672.00;2075052;28;20053;-66
2023/10/20 04:11:01;;;;;;;2.30;0.93;;;;;;;21.68;58.60;96667.41;2077205;28;20570;-66
2023/10/20 04:12:03;;;;;;;2.60;1.20;;;;;;;21.70;58.71;96672.50;2074917;28;20056;-65
2023/10/20 04:13:05;;;;;;;4.03;1.13;;;;;;;21.69;58.69;96673.59;2074462;28;20459;-65
2023/10/20 04:14:06;;;;;;;1.70;1.33;;;;;;;21.71;58.50;96671.44;2078091;28;20068;-66
2023/10/20 04:15:14;;;;;;;3.42;1.35;;;;;;;21.70;58.59;96664.41;2077428;28;20128;-65
2023/10/20 04:16:17;;;;;;;3.30;1.33;;;;;;;21.67;58.53;96670.34;2071193;28;20088;-66
2023/10/20 04:17:18;;;;;;;1.33;0.90;;;;;;;21.67;58.84;96673.06;2076697;28;20079;-66
2023/10/20 04:18:20;;;;;;;2.60;1.40;;;;;;;21.69;58.60;96665.50;2077459;28;20083;-66
2023/10/20 04:19:21;;;;;;;2.90;1.77;;;;;;;21.71;58.52;96666.84;2080432;28;20563;-66
2023/10/20 04:20:23;;;;;;;2.65;1.42;;;;;;;21.70;58.59;96659.03;2073738;28;20056;-65
2023/10/20 04:21:26;;;;;;;2.20;1.38;;;;;;;21.70;58.51;96670.63;2075677;28;20068;-66
2023/10/20 04:22:26;;;;;;;1.65;1.02;;;;;;;21.71;58.46;96664.16;2075802;28;20413;-66
2023/10/20 04:23:28;;;;;;;2.47;0.98;;;;;;;21.68;58.56;96658.50;2079349;28;20072;-66
2023/10/20 04:24:29;;;;;;;3.15;1.63;;;;;;;21.71;58.57;96660.66;2078127;28;20051;-65
2023/10/20 04:25:33;;;;;;;2.20;1.38;;;;;;;21.68;58.51;96648.50;2078086;28;20045;-65
2023/10/20 04:26:35;;;;;;;1.27;1.17;;;;;;;21.73;58.40;96658.47;2076630;28;20065;-66
2023/10/20 04:27:45;;;;;;;1.58;1.10;;;;;;;21.70;58.61;96640.13;2077360;28;20064;-66
2023/10/20 04:28:47;;;;;;;1.63;1.08;;;;;;;21.66;58.56;96650.66;2079008;28;20122;-65
2023/10/20 04:42:43;;;;;;;1.73;1.05;;;;;;;21.60;58.82;96614.78;2075235;28;20052;-65
2023/10/20 04:49:27;;;;;;;1.25;1.13;;;;;;;21.59;58.89;96604.25;2055446;28;20061;-65
2023/10/20 04:52:05;;;;;;;3.88;1.25;;;;;;;21.58;58.93;96611.56;2076108;28;20050;-66
2023/10/20 04:53:23;;;;;;;2.95;1.20;;;;;;;21.60;58.93;96612.09;2078358;28;20037;-66
2023/10/20 04:54:40;;;;;;;1.27;1.17;;;;;;;21.61;58.73;96621.00;2075725;28;20057;-65
2023/10/20 04:58:24;;;;;;;2.65;1.98;;;;;;;21.60;59.04;96609.41;2072457;28;20111;-64
2023/10/20 04:59:30;;;;;;;1.10;0.98;;;;;;;21.64;58.90;96613.16;2076890;28;20090;-66
2023/10/20 05:00:36;;;;;;;1.73;1.10;;;;;;;21.66;58.48;96599.41;2075000;28;20107;-66
2023/10/20 05:01:49;;;;;;;1.33;0.95;;;;;;;21.67;58.39;96581.31;2076110;28;20045;-66
2023/10/20 05:03:06;;;;;;;1.73;0.88;;;;;;;21.66;58.44;96590.50;2077747;28;20084;-65
2023/10/20 05:04:14;;;;;;;3.15;1.13;;;;;;;21.62;58.74;96604.56;2075094;28;20076;-66
2023/10/20 05:05:26;;;;;;;2.00;0.88;;;;;;;21.64;58.51;96598.88;2076741;28;20144;-66
2023/10/20 05:06:32;;;;;;;3.08;1.10;;;;;;;21.64;58.59;96618.56;2075244;28;20045;-65
2023/10/20 05:07:32;;;;;;;2.90;1.30;;;;;;;21.64;58.82;96604.25;2075483;28;20075;-66
2023/10/20 05:08:33;;;;;;;1.90;1.42;;;;;;;21.67;58.44;96605.59;2074182;28;20512;-66
2023/10/20 05:09:40;;;;;;;4.05;2.28;;;;;;;21.67;58.47;96592.13;2078362;28;20063;-65
2023/10/20 05:10:43;;;;;;;2.22;1.42;;;;;;;21.66;58.47;96594.00;2077615;28;20071;-65
2023/10/20 05:11:46;;;;;;;1.02;0.90;;;;;;;21.62;58.53;96580.28;2077728;28;20075;-65
2023/10/20 05:12:47;;;;;;;2.47;1.45;;;;;;;21.63;58.68;96568.38;2075291;28;20060;-65
2023/10/20 05:13:49;;;;;;;3.00;1.98;;;;;;;21.65;58.51;96557.34;2078877;28;20099;-66
2023/10/20 05:14:50;;;;;;;3.15;1.42;;;;;;;21.67;58.40;96551.66;2077979;28;20077;-66
2023/10/20 05:15:52;;;;;;;1.92;1.42;;;;;;;21.65;58.47;96557.34;2076687;28;20107;-66
2023/10/20 05:16:55;;;;;;;2.88;1.05;;;;;;;21.67;58.61;96551.66;2078202;28;20053;-66
2023/10/20 05:17:58;;;;;;;1.30;1.00;;;;;;;21.67;58.56;96540.84;2078694;28;20073;-65
2023/10/20 05:19:01;;;;;;;1.20;0.93;;;;;;;21.65;58.48;96535.75;2077530;28;20052;-66